Time;durP1;ratioP1;P1;durP2;ratioP2;P2;SDS_P1;SDS_P2;PMS_P1;PMS_P2;Temp;Humidity;BMP_temperature;BMP_pressure;BME280_temperature;BME280_humidity;BME280_pressure;Samples;Min_cycle;Max_cycle;Signal;HPM_P1;HPM_P2
2022/08/13 00:00:58;;;;;;;2.92;1.30;;;25.30;55.70;;;;;;5045970;28;20032;-42
2022/08/13 00:03:24;;;;;;;;;;;25.20;55.10;;;;;;5045032;28;20519;-43
2022/08/13 00:05:50;;;;;;;1.20;0.90;;;25.20;55.20;;;;;;5045563;28;20000;-41
2022/08/13 00:08:17;;;;;;;1.20;0.98;;;25.10;55.20;;;;;;5045683;28;20033;-44
2022/08/13 00:10:42;;;;;;;1.13;1.02;;;25.00;55.30;;;;;;5045117;28;20025;-43
2022/08/13 00:13:09;;;;;;;1.63;1.05;;;25.00;56.00;;;;;;5045373;28;20028;-43
2022/08/13 00:15:38;;;;;;;0.98;0.98;;;25.00;55.50;;;;;;5044632;28;20531;-43
2022/08/13 00:18:10;;;;;;;1.88;1.02;;;24.90;55.60;;;;;;5045358;28;20025;-42
2022/08/13 00:20:42;;;;;;;1.90;1.05;;;24.90;55.60;;;;;;5045083;28;20037;-44
2022/08/13 00:23:10;;;;;;;0.90;0.90;;;24.90;55.80;;;;;;5024997;28;20033;-42
2022/08/13 00:25:36;;;;;;;2.25;1.15;;;24.80;55.80;;;;;;5039966;28;20206;-43
2022/08/13 00:28:04;;;;;;;3.42;0.98;;;24.80;55.90;;;;;;5045006;28;20131;-44
2022/08/13 00:30:31;;;;;;;1.40;1.10;;;24.70;56.00;;;;;;5044426;28;20448;-43
2022/08/13 00:32:59;;;;;;;1.00;0.90;;;24.70;56.10;;;;;;5045150;28;20029;-43
2022/08/13 00:35:25;;;;;;;2.35;1.35;;;24.70;56.20;;;;;;5044691;28;20027;-43
2022/08/13 00:37:52;;;;;;;1.52;1.20;;;24.60;56.30;;;;;;5045030;28;20534;-42
2022/08/13 00:40:19;;;;;;;1.10;1.00;;;24.60;56.40;;;;;;5045936;28;20028;-42
2022/08/13 00:42:45;;;;;;;1.42;1.10;;;24.50;56.50;;;;;;5044498;28;20029;-43
2022/08/13 00:45:11;;;;;;;1.67;1.25;;;24.40;56.50;;;;;;5044028;28;20086;-43
2022/08/13 00:50:22;;;;;;;1.02;0.98;;;24.40;56.80;;;;;;5044608;28;20059;-42
2022/08/13 00:52:49;;;;;;;1.30;1.20;;;24.30;56.80;;;;;;5044643;28;20040;-43
2022/08/13 00:55:19;;;;;;;1.30;1.20;;;24.30;56.90;;;;;;5044703;28;20017;-43
2022/08/13 00:57:46;;;;;;;1.33;1.23;;;24.30;57.00;;;;;;5043728;28;20029;-43
2022/08/13 01:00:18;;;;;;;1.23;1.13;;;24.20;57.10;;;;;;5045517;28;20029;-43
2022/08/13 01:02:47;;;;;;;1.17;1.08;;;24.20;57.30;;;;;;5041206;28;20045;-43
2022/08/13 01:05:13;;;;;;;3.40;1.30;;;24.10;57.30;;;;;;5043746;28;20685;-43
2022/08/13 01:07:41;;;;;;;2.53;1.20;;;24.10;57.30;;;;;;5043176;28;20021;-43
2022/08/13 01:10:08;;;;;;;1.65;1.30;;;24.00;57.40;;;;;;5045228;28;20017;-43
2022/08/13 01:12:36;;;;;;;1.20;1.10;;;24.00;57.50;;;;;;5044273;28;20036;-44
2022/08/13 01:15:03;;;;;;;1.00;0.98;;;23.90;57.50;;;;;;5045523;28;20447;-43
2022/08/13 01:17:30;;;;;;;1.85;1.20;;;23.90;57.60;;;;;;5044628;28;20059;-43
2022/08/13 01:19:56;;;;;;;2.60;1.20;;;23.90;57.70;;;;;;5044123;28;20086;-43
2022/08/13 01:22:23;;;;;;;1.10;0.80;;;23.80;57.70;;;;;;5045370;28;20304;-42
2022/08/13 01:24:50;;;;;;;1.23;1.02;;;23.80;57.80;;;;;;5044553;28;20025;-43
2022/08/13 01:27:21;;;;;;;1.70;1.08;;;23.80;58.00;;;;;;5043501;28;20475;-44
2022/08/13 01:29:48;;;;;;;1.30;1.20;;;23.70;58.00;;;;;;5044147;28;20095;-42
2022/08/13 01:32:15;;;;;;;1.13;1.00;;;23.70;58.00;;;;;;5044145;28;20044;-44
2022/08/13 01:34:42;;;;;;;1.27;1.17;;;23.70;58.10;;;;;;5043526;28;20025;-44
2022/08/13 01:37:08;;;;;;;1.20;1.00;;;23.70;58.20;;;;;;5043976;28;20499;-42
2022/08/13 01:39:34;;;;;;;1.27;1.10;;;23.70;58.30;;;;;;5043730;28;20463;-42
2022/08/13 01:42:00;;;;;;;1.90;1.05;;;23.70;58.30;;;;;;5044057;28;20031;-43
2022/08/13 01:44:29;;;;;;;1.52;1.10;;;23.60;58.30;;;;;;5044667;28;20460;-43
2022/08/13 01:52:34;;;;;;;2.80;1.00;;;23.50;58.50;;;;;;5044800;28;20051;-44
2022/08/13 01:55:04;;;;;;;1.48;0.90;;;23.50;58.60;;;;;;5043616;28;20372;-43
2022/08/13 01:57:33;;;;;;;1.73;1.10;;;23.50;58.70;;;;;;5043766;28;20020;-44
2022/08/13 02:00:00;;;;;;;1.10;1.00;;;23.40;58.70;;;;;;5033018;28;20086;-44
2022/08/13 02:02:27;;;;;;;1.10;1.00;;;23.40;58.80;;;;;;5043566;28;20045;-44
2022/08/13 02:04:56;;;;;;;1.20;1.10;;;23.40;58.90;;;;;;5043797;28;20056;-43
2022/08/13 02:07:21;;;;;;;0.90;0.90;;;23.40;58.90;;;;;;5043791;28;20021;-44
2022/08/13 02:09:47;;;;;;;1.17;1.00;;;23.30;58.90;;;;;;5042626;28;20045;-44
2022/08/13 02:12:14;;;;;;;3.90;0.90;;;23.30;58.90;;;;;;5045034;28;20547;-43
2022/08/13 02:14:42;;;;;;;0.88;0.88;;;23.30;59.00;;;;;;5043693;28;20111;-44
2022/08/13 02:17:24;;;;;;;1.63;0.93;;;23.30;59.00;;;;;;5045697;28;20079;-43
2022/08/13 02:19:56;;;;;;;;;;;23.30;59.00;;;;;;5047566;28;20103;-42
2022/08/13 02:22:24;;;;;;;1.67;1.00;;;23.30;59.10;;;;;;5047459;28;20265;-43
2022/08/13 02:24:52;;;;;;;1.10;1.00;;;23.20;59.10;;;;;;5047262;28;20032;-43
2022/08/13 02:27:22;;;;;;;2.03;1.10;;;23.10;59.10;;;;;;5047814;28;20041;-44
2022/08/13 02:29:49;;;;;;;1.13;0.90;;;23.20;59.30;;;;;;5046447;28;20465;-43
2022/08/13 02:32:16;;;;;;;1.13;0.80;;;23.10;59.30;;;;;;5047413;28;20444;-42
2022/08/13 02:34:43;;;;;;;1.38;1.00;;;23.10;59.30;;;;;;5047193;28;20021;-42
2022/08/13 02:37:11;;;;;;;1.52;1.10;;;23.10;59.40;;;;;;5046778;28;20048;-42
2022/08/13 02:39:37;;;;;;;1.27;1.17;;;23.10;59.40;;;;;;5047129;28;20029;-43
2022/08/13 02:42:03;;;;;;;1.20;1.10;;;23.10;59.50;;;;;;5046177;28;20116;-42
2022/08/13 02:44:29;;;;;;;1.00;1.00;;;23.00;59.50;;;;;;5044619;28;20565;-42
2022/08/13 02:46:54;;;;;;;1.40;0.98;;;23.00;59.50;;;;;;5047548;28;20374;-43
2022/08/13 02:49:21;;;;;;;1.50;1.00;;;23.00;59.70;;;;;;5046890;28;20052;-43
2022/08/13 02:51:47;;;;;;;1.70;1.30;;;23.00;59.70;;;;;;5045855;28;20028;-43
2022/08/13 02:54:17;;;;;;;1.25;1.00;;;23.00;59.80;;;;;;5047501;28;20032;-43
2022/08/13 02:56:44;;;;;;;0.80;0.80;;;22.90;59.70;;;;;;5046802;28;20098;-44
2022/08/13 02:59:10;;;;;;;1.00;0.80;;;22.90;59.80;;;;;;5046547;28;20036;-43
2022/08/13 03:01:38;;;;;;;1.38;1.15;;;22.90;59.80;;;;;;5043745;28;20218;-43
2022/08/13 03:04:04;;;;;;;1.25;1.00;;;22.90;59.80;;;;;;5046339;28;21068;-43
2022/08/13 03:06:30;;;;;;;1.20;0.80;;;22.80;59.80;;;;;;5047165;28;20116;-43
2022/08/13 03:08:56;;;;;;;2.60;1.10;;;22.90;60.00;;;;;;5047063;28;20199;-43
2022/08/13 03:11:21;;;;;;;0.90;0.90;;;22.80;60.00;;;;;;5046490;28;20104;-43
2022/08/13 03:13:55;;;;;;;1.27;1.10;;;22.80;60.00;;;;;;5046308;28;20037;-43
2022/08/13 03:16:24;;;;;;;1.48;1.00;;;22.80;60.00;;;;;;5042623;28;20425;-43
2022/08/13 03:18:54;;;;;;;0.95;0.88;;;22.80;60.10;;;;;;5045946;28;20135;-43
2022/08/13 03:21:25;;;;;;;0.70;0.70;;;22.70;60.10;;;;;;5046602;28;20464;-43
2022/08/13 03:23:51;;;;;;;0.82;0.75;;;22.70;60.20;;;;;;5046813;28;20122;-43
2022/08/13 03:26:18;;;;;;;2.28;0.98;;;22.70;60.30;;;;;;5046117;28;20753;-43
2022/08/13 03:28:44;;;;;;;1.75;0.80;;;22.70;60.30;;;;;;5045865;28;20069;-43
2022/08/13 03:31:10;;;;;;;1.25;0.80;;;22.70;60.40;;;;;;5046606;28;20048;-42
2022/08/13 03:33:36;;;;;;;0.80;0.80;;;22.60;60.40;;;;;;5045284;28;20060;-43
2022/08/13 03:36:02;;;;;;;1.08;0.98;;;22.60;60.40;;;;;;5046040;28;20013;-42
2022/08/13 03:38:28;;;;;;;0.75;0.75;;;22.60;60.50;;;;;;5046556;28;20036;-43
2022/08/13 03:41:11;;;;;;;1.15;0.95;;;22.50;60.50;;;;;;5045277;28;20077;-43
2022/08/13 03:43:44;;;;;;;0.73;0.70;;;22.50;60.50;;;;;;5036357;28;20039;-44
2022/08/13 03:46:18;;;;;;;0.70;0.70;;;22.50;60.50;;;;;;5045945;28;20017;-42
2022/08/13 03:48:45;;;;;;;0.93;0.93;;;22.50;60.70;;;;;;5035981;28;20041;-42
2022/08/13 03:51:11;;;;;;;1.10;0.80;;;22.50;60.80;;;;;;5046558;28;20021;-42
2022/08/13 03:53:38;;;;;;;2.25;0.93;;;22.50;60.80;;;;;;5045343;28;20143;-43
2022/08/13 03:56:04;;;;;;;2.55;0.77;;;22.40;60.80;;;;;;5045904;28;20303;-43
2022/08/13 03:58:30;;;;;;;0.93;0.90;;;22.40;60.90;;;;;;5042315;28;20036;-43
2022/08/13 04:00:57;;;;;;;0.93;0.73;;;22.40;61.00;;;;;;5045498;28;20365;-42
2022/08/13 04:03:28;;;;;;;1.15;1.05;;;22.30;61.00;;;;;;5046350;28;20098;-42
2022/08/13 04:06:03;;;;;;;1.60;1.00;;;22.30;61.00;;;;;;5046734;28;20025;-43
2022/08/13 04:08:34;;;;;;;0.70;0.70;;;22.30;61.10;;;;;;5044438;28;20159;-43
2022/08/13 04:11:03;;;;;;;1.10;1.00;;;22.30;61.10;;;;;;5046278;28;20461;-42
2022/08/13 04:13:29;;;;;;;1.90;0.77;;;22.20;61.20;;;;;;5045548;28;20086;-42
2022/08/13 04:15:55;;;;;;;0.75;0.68;;;22.20;61.20;;;;;;5045014;28;20021;-42
2022/08/13 04:18:20;;;;;;;1.30;0.90;;;22.20;61.20;;;;;;5046089;28;20036;-43
2022/08/13 04:20:52;;;;;;;1.05;0.90;;;22.20;61.30;;;;;;5045167;28;20120;-43
2022/08/13 04:23:19;;;;;;;0.80;0.80;;;22.10;61.30;;;;;;5044839;28;20055;-42
2022/08/13 04:25:46;;;;;;;0.77;0.73;;;22.10;61.40;;;;;;5045638;28;20032;-43
2022/08/13 04:28:14;;;;;;;1.33;1.23;;;22.10;61.40;;;;;;5045292;28;20041;-42
2022/08/13 04:30:41;;;;;;;1.70;0.77;;;22.10;61.50;;;;;;5044593;28;20029;-43
2022/08/13 04:33:10;;;;;;;0.73;0.73;;;22.10;61.60;;;;;;5045085;28;20082;-43
2022/08/13 04:35:36;;;;;;;0.70;0.70;;;22.10;61.60;;;;;;5044596;28;20042;-43
2022/08/13 04:38:02;;;;;;;0.88;0.88;;;22.10;61.60;;;;;;5045064;28;20012;-43
2022/08/13 04:40:28;;;;;;;0.90;0.82;;;22.10;61.70;;;;;;5044475;28;20310;-43
2022/08/13 04:42:54;;;;;;;0.80;0.80;;;22.00;61.70;;;;;;5044076;28;20370;-42
2022/08/13 04:45:25;;;;;;;0.65;0.63;;;22.00;61.70;;;;;;5045074;28;20123;-42
2022/08/13 04:47:50;;;;;;;0.65;0.65;;;22.00;61.80;;;;;;5045175;28;20151;-43
2022/08/13 04:50:16;;;;;;;0.65;0.60;;;22.00;61.80;;;;;;5044715;28;20100;-42
2022/08/13 04:52:42;;;;;;;3.20;0.80;;;22.00;61.90;;;;;;5045115;28;20677;-47
2022/08/13 04:55:12;;;;;;;3.30;0.70;;;22.00;61.90;;;;;;5044871;28;20052;-42
2022/08/13 04:57:38;;;;;;;1.27;0.73;;;22.00;62.00;;;;;;5043907;28;20064;-42
2022/08/13 05:00:06;;;;;;;0.70;0.70;;;22.00;62.00;;;;;;5044977;28;20040;-43
2022/08/13 05:02:36;;;;;;;0.70;0.70;;;22.00;62.00;;;;;;5044626;28;20447;-43
2022/08/13 05:05:02;;;;;;;0.70;0.70;;;22.00;62.10;;;;;;5044277;28;20399;-43
2022/08/13 05:07:28;;;;;;;2.00;0.60;;;22.00;62.10;;;;;;5045243;28;20071;-43
2022/08/13 05:09:54;;;;;;;0.77;0.77;;;22.00;62.10;;;;;;5044495;28;20141;-43
2022/08/13 05:12:20;;;;;;;0.60;0.60;;;22.00;62.10;;;;;;5044503;28;20086;-42
2022/08/13 05:14:46;;;;;;;1.15;0.70;;;22.00;62.20;;;;;;5044274;28;20125;-42
2022/08/13 05:17:11;;;;;;;0.95;0.75;;;22.00;62.20;;;;;;5045018;28;20029;-42
2022/08/13 05:19:37;;;;;;;1.27;0.80;;;22.00;62.20;;;;;;5044346;28;20463;-43
2022/08/13 05:22:03;;;;;;;1.33;0.70;;;22.10;62.30;;;;;;5044413;28;20033;-43
2022/08/13 05:24:28;;;;;;;0.73;0.70;;;22.00;62.20;;;;;;5044022;28;20020;-42
2022/08/13 05:26:55;;;;;;;1.40;0.65;;;22.10;62.30;;;;;;5044083;28;20033;-43
2022/08/13 05:29:20;;;;;;;1.17;0.63;;;22.10;62.40;;;;;;5044299;28;20036;-42
2022/08/13 05:31:46;;;;;;;0.70;0.70;;;22.10;62.40;;;;;;5043144;28;20025;-43
2022/08/13 05:34:12;;;;;;;2.88;0.82;;;22.10;62.50;;;;;;5044353;28;20029;-43
2022/08/13 05:36:44;;;;;;;0.68;0.65;;;22.10;62.50;;;;;;5044029;28;20029;-42
2022/08/13 05:39:11;;;;;;;;;;;22.10;62.60;;;;;;5044329;28;20033;-42
2022/08/13 05:41:36;;;;;;;2.00;0.65;;;22.10;62.60;;;;;;5044262;28;19928;-42
2022/08/13 05:44:02;;;;;;;0.93;0.50;;;22.10;62.50;;;;;;5044682;28;20025;-42
2022/08/13 05:46:28;;;;;;;0.65;0.65;;;22.10;62.70;;;;;;5042591;28;20033;-43
2022/08/13 05:48:56;;;;;;;0.60;0.60;;;22.10;62.70;;;;;;5043991;28;20047;-47
2022/08/13 05:51:33;;;;;;;2.67;0.70;;;22.10;62.80;;;;;;5044775;28;20024;-43
2022/08/13 05:54:00;;;;;;;0.60;0.60;;;22.20;63.00;;;;;;5047328;28;20442;-43
2022/08/13 05:56:35;;;;;;;2.63;0.75;;;22.20;63.00;;;;;;5047720;28;20070;-43
2022/08/13 05:59:01;;;;;;;0.98;0.90;;;22.20;63.00;;;;;;5047695;28;20306;-43
2022/08/13 06:04:19;;;;;;;0.75;0.70;;;22.20;63.00;;;;;;5047247;28;20110;-43
2022/08/13 06:06:46;;;;;;;1.90;0.70;;;22.30;63.10;;;;;;5046266;28;20100;-42
2022/08/13 06:09:12;;;;;;;1.00;0.90;;;22.30;63.10;;;;;;5047400;28;20041;-42
2022/08/13 06:11:40;;;;;;;1.33;0.75;;;22.30;63.10;;;;;;5046380;28;20033;-42
2022/08/13 06:14:06;;;;;;;0.65;0.65;;;22.40;63.20;;;;;;5046294;28;20029;-42
2022/08/13 06:16:32;;;;;;;0.82;0.77;;;22.40;63.10;;;;;;5046604;28;20021;-43
2022/08/13 06:18:58;;;;;;;1.13;0.85;;;22.40;63.10;;;;;;5047471;28;20041;-42
2022/08/13 06:21:24;;;;;;;1.20;0.70;;;22.40;63.10;;;;;;5045992;28;20154;-43
2022/08/13 06:23:51;;;;;;;1.30;0.85;;;22.40;63.30;;;;;;5046867;28;20112;-43
2022/08/13 06:26:19;;;;;;;1.60;0.85;;;22.50;63.40;;;;;;5047041;28;20028;-43
2022/08/13 06:28:46;;;;;;;0.90;0.70;;;22.50;63.50;;;;;;5045268;28;20086;-43
2022/08/13 06:31:14;;;;;;;0.93;0.60;;;22.50;63.50;;;;;;5046848;28;20029;-43
2022/08/13 06:33:40;;;;;;;0.60;0.60;;;22.50;63.60;;;;;;5042313;28;20064;-43
2022/08/13 06:36:14;;;;;;;0.77;0.65;;;22.60;63.60;;;;;;5045749;28;20489;-43
2022/08/13 06:38:45;;;;;;;1.50;0.70;;;22.60;63.70;;;;;;5046529;28;20013;-43
2022/08/13 06:41:12;;;;;;;2.55;0.80;;;22.60;63.60;;;;;;5046953;28;20049;-44
2022/08/13 06:43:43;;;;;;;1.52;0.70;;;22.70;63.70;;;;;;5045332;28;20029;-42
2022/08/13 06:46:11;;;;;;;1.20;0.82;;;22.70;63.80;;;;;;5046407;28;20139;-42
2022/08/13 06:48:37;;;;;;;0.70;0.70;;;22.70;63.80;;;;;;5046396;28;20496;-43
2022/08/13 06:51:05;;;;;;;0.70;0.70;;;22.80;63.90;;;;;;5046067;28;20029;-42
2022/08/13 06:53:35;;;;;;;2.22;0.60;;;22.80;63.90;;;;;;5046725;28;20463;-44
2022/08/13 06:56:06;;;;;;;0.90;0.80;;;22.80;64.00;;;;;;5047126;28;20021;-44
2022/08/13 06:58:31;;;;;;;1.05;0.80;;;22.90;64.00;;;;;;5046507;28;20476;-43
2022/08/13 07:00:58;;;;;;;0.70;0.70;;;22.90;64.00;;;;;;5046734;28;20083;-44
2022/08/13 07:03:33;;;;;;;0.75;0.75;;;22.90;64.00;;;;;;5044963;28;20084;-44
2022/08/13 07:05:59;;;;;;;0.80;0.77;;;23.00;64.00;;;;;;5046441;28;20040;-44
2022/08/13 07:08:27;;;;;;;0.80;0.68;;;23.00;63.90;;;;;;5046080;28;20021;-43
2022/08/13 07:13:41;;;;;;;1.50;0.88;;;23.10;64.00;;;;;;5046406;28;20182;-43
2022/08/13 07:16:08;;;;;;;1.33;0.85;;;23.20;64.00;;;;;;5045729;28;20032;-43
2022/08/13 07:18:35;;;;;;;0.70;0.70;;;23.20;63.90;;;;;;5045255;28;20366;-42
2022/08/13 07:21:04;;;;;;;0.70;0.70;;;23.30;63.90;;;;;;5047144;28;20536;-42
2022/08/13 07:23:29;;;;;;;1.35;0.80;;;23.30;63.90;;;;;;5046187;28;20028;-43
2022/08/13 07:25:57;;;;;;;0.52;0.52;;;23.40;63.90;;;;;;5046250;28;20025;-43
2022/08/13 07:28:24;;;;;;;0.70;0.70;;;23.40;63.90;;;;;;5047664;28;20032;-44
2022/08/13 07:30:51;;;;;;;0.65;0.60;;;23.50;64.00;;;;;;5045830;28;20488;-44
2022/08/13 07:33:18;;;;;;;1.00;0.90;;;23.50;64.00;;;;;;5045854;28;20033;-44
2022/08/13 07:35:43;;;;;;;1.70;1.00;;;23.50;64.00;;;;;;5046026;28;20547;-44
2022/08/13 07:38:09;;;;;;;0.73;0.73;;;23.60;64.10;;;;;;5046624;28;20115;-43
2022/08/13 07:40:35;;;;;;;0.70;0.70;;;23.60;64.00;;;;;;5045911;28;20065;-42
2022/08/13 07:43:04;;;;;;;0.82;0.80;;;23.60;64.00;;;;;;5045885;28;20024;-42
2022/08/13 07:45:29;;;;;;;1.40;0.80;;;23.70;63.90;;;;;;5045043;28;20032;-43
2022/08/13 07:47:57;;;;;;;0.60;0.60;;;23.80;63.90;;;;;;5045929;28;20110;-43
2022/08/13 07:50:23;;;;;;;0.95;0.70;;;23.80;63.90;;;;;;5045850;28;20463;-43
2022/08/13 07:52:57;;;;;;;1.10;0.77;;;23.90;64.00;;;;;;5044836;28;20037;-43
2022/08/13 07:55:25;;;;;;;0.80;0.80;;;23.90;64.00;;;;;;5046359;28;20550;-44
2022/08/13 07:57:51;;;;;;;0.60;0.60;;;24.00;64.10;;;;;;5045626;28;20036;-43
2022/08/13 08:00:25;;;;;;;0.90;0.70;;;24.00;63.90;;;;;;5044884;28;20021;-43
2022/08/13 08:03:01;;;;;;;1.60;0.90;;;24.10;64.00;;;;;;5046076;28;20181;-43
2022/08/13 08:05:31;;;;;;;1.05;0.80;;;24.10;63.90;;;;;;5045185;28;20441;-43
2022/08/13 08:07:59;;;;;;;1.10;0.73;;;24.20;63.90;;;;;;5044539;28;20044;-43
2022/08/13 08:10:27;;;;;;;1.20;0.73;;;24.20;63.90;;;;;;5045192;28;20048;-43
2022/08/13 08:12:59;;;;;;;0.85;0.80;;;24.20;63.90;;;;;;5045083;28;20025;-43
2022/08/13 08:15:26;;;;;;;0.80;0.75;;;24.30;63.90;;;;;;5043561;28;20013;-43
2022/08/13 08:17:53;;;;;;;0.60;0.60;;;24.30;63.70;;;;;;5045131;28;20032;-43
2022/08/13 08:20:23;;;;;;;4.47;0.90;;;24.30;63.70;;;;;;5045549;28;20151;-43
2022/08/13 08:22:50;;;;;;;0.68;0.68;;;24.40;63.70;;;;;;5033576;28;20485;-43
2022/08/13 08:25:18;;;;;;;0.70;0.70;;;24.50;63.50;;;;;;5045075;28;20029;-43
2022/08/13 08:27:44;;;;;;;1.30;0.90;;;24.50;63.40;;;;;;5042180;28;20057;-44
2022/08/13 08:30:15;;;;;;;0.80;0.80;;;24.60;63.40;;;;;;5045640;28;20212;-43
2022/08/13 08:32:42;;;;;;;1.35;0.77;;;24.60;63.40;;;;;;5041934;28;20060;-43
2022/08/13 08:35:08;;;;;;;0.82;0.80;;;24.70;63.40;;;;;;5044555;28;20037;-43
2022/08/13 08:43:10;;;;;;;0.70;0.70;;;24.80;63.20;;;;;;5041393;28;20033;-43
2022/08/13 08:45:36;;;;;;;0.80;0.80;;;24.90;63.20;;;;;;5044529;28;20107;-42
2022/08/13 08:48:02;;;;;;;1.60;1.30;;;25.00;63.10;;;;;;5042926;28;20043;-43
2022/08/13 08:50:28;;;;;;;1.92;0.90;;;25.00;63.00;;;;;;5043733;28;20059;-43
2022/08/13 08:55:40;;;;;;;2.35;0.77;;;25.20;63.00;;;;;;5043804;28;20083;-43
2022/08/13 08:58:07;;;;;;;0.88;0.80;;;25.20;63.00;;;;;;5044871;28;20029;-44
2022/08/13 09:00:36;;;;;;;0.85;0.80;;;25.20;63.00;;;;;;5045311;28;20041;-44
2022/08/13 09:03:03;;;;;;;0.60;0.60;;;25.30;63.00;;;;;;5043065;28;20659;-43
2022/08/13 09:05:29;;;;;;;0.70;0.70;;;25.30;62.90;;;;;;5041849;28;20029;-43
2022/08/13 09:07:55;;;;;;;0.80;0.80;;;25.40;63.50;;;;;;5043889;28;20064;-43
2022/08/13 09:10:22;;;;;;;1.52;0.75;;;25.50;63.50;;;;;;5042415;28;20028;-42
2022/08/13 09:12:50;;;;;;;0.70;0.70;;;25.60;62.80;;;;;;5044037;28;20080;-43
2022/08/13 09:15:21;;;;;;;0.70;0.70;;;25.60;62.70;;;;;;5044805;28;20111;-43
2022/08/13 09:17:47;;;;;;;0.80;0.80;;;25.70;62.70;;;;;;5043435;28;20017;-42
2022/08/13 09:20:16;;;;;;;0.73;0.73;;;25.70;62.50;;;;;;5044747;28;20507;-43
2022/08/13 09:22:44;;;;;;;1.08;0.85;;;25.80;62.40;;;;;;5043920;28;20036;-42
2022/08/13 09:25:13;;;;;;;0.77;0.75;;;25.80;62.30;;;;;;5044024;28;20028;-43
2022/08/13 09:27:43;;;;;;;1.50;0.80;;;25.90;62.20;;;;;;5048281;28;20097;-43
2022/08/13 09:30:10;;;;;;;1.77;0.75;;;25.90;62.00;;;;;;5048017;28;20449;-43
2022/08/13 09:32:36;;;;;;;1.13;0.90;;;26.10;61.80;;;;;;5047034;28;20484;-43
2022/08/13 09:35:05;;;;;;;0.82;0.77;;;26.20;61.50;;;;;;5048513;28;20035;-43
2022/08/13 09:37:32;;;;;;;0.98;0.88;;;26.30;61.30;;;;;;5047802;28;20755;-43
2022/08/13 09:40:07;;;;;;;1.10;0.90;;;26.40;61.20;;;;;;5046963;28;20309;-43
2022/08/13 09:42:41;;;;;;;1.95;0.88;;;26.40;61.10;;;;;;5048121;28;20029;-43
2022/08/13 09:45:07;;;;;;;1.48;0.80;;;26.50;61.10;;;;;;5044057;28;20112;-43
2022/08/13 09:47:33;;;;;;;1.02;0.70;;;26.50;60.80;;;;;;5048490;28;20504;-43
2022/08/13 09:49:59;;;;;;;0.80;0.80;;;26.60;60.70;;;;;;5047421;28;20027;-43
2022/08/13 09:52:24;;;;;;;0.95;0.73;;;26.70;60.20;;;;;;5045057;28;20024;-43
2022/08/13 09:54:50;;;;;;;0.68;0.68;;;26.80;60.10;;;;;;5045934;28;20764;-44
2022/08/13 09:57:20;;;;;;;1.30;0.60;;;26.80;60.00;;;;;;5046514;28;20031;-43
2022/08/13 09:59:49;;;;;;;0.70;0.70;;;26.80;60.00;;;;;;5042893;28;20025;-43
2022/08/13 10:02:14;;;;;;;0.80;0.80;;;26.90;59.90;;;;;;5044325;28;20508;-43
2022/08/13 10:04:44;;;;;;;1.77;0.68;;;26.90;59.80;;;;;;5045275;28;20028;-43
2022/08/13 10:07:12;;;;;;;0.50;0.50;;;27.00;59.70;;;;;;5045280;28;20021;-43
2022/08/13 10:09:38;;;;;;;0.77;0.70;;;27.00;59.70;;;;;;5044527;28;20037;-42
2022/08/13 10:12:06;;;;;;;0.73;0.70;;;27.00;59.70;;;;;;5046038;28;20025;-43
2022/08/13 10:14:33;;;;;;;0.85;0.80;;;27.00;59.70;;;;;;5044680;28;20049;-43
2022/08/13 10:16:59;;;;;;;1.67;1.00;;;27.10;59.50;;;;;;5045229;28;20122;-43
2022/08/13 10:19:25;;;;;;;1.02;0.70;;;27.20;59.50;;;;;;5044645;28;20060;-43
2022/08/13 10:21:51;;;;;;;3.28;0.70;;;27.20;59.60;;;;;;5045285;28;20121;-43
2022/08/13 10:24:16;;;;;;;0.60;0.60;;;27.20;59.50;;;;;;5046430;28;20026;-43
2022/08/13 10:26:42;;;;;;;1.15;1.05;;;27.30;59.40;;;;;;5044455;28;20427;-43
2022/08/13 10:29:08;;;;;;;0.60;0.60;;;27.40;59.10;;;;;;5045061;28;20041;-43
2022/08/13 10:31:35;;;;;;;3.20;0.80;;;27.40;59.00;;;;;;5046329;28;20025;-43
2022/08/13 10:34:03;;;;;;;1.05;0.80;;;27.50;58.90;;;;;;5046861;28;20083;-43
2022/08/13 10:36:30;;;;;;;0.93;0.80;;;27.50;58.50;;;;;;5046793;28;20033;-43
2022/08/13 10:38:56;;;;;;;0.98;0.70;;;27.70;58.50;;;;;;5046371;28;20037;-43
2022/08/13 10:41:22;;;;;;;0.80;0.80;;;27.70;59.20;;;;;;5047040;28;20357;-43
2022/08/13 10:43:49;;;;;;;0.60;0.60;;;27.70;58.50;;;;;;5046955;28;20036;-44
2022/08/13 10:46:20;;;;;;;1.33;0.80;;;27.70;58.50;;;;;;5047770;28;20033;-44
2022/08/13 10:48:55;;;;;;;0.70;0.70;;;27.70;58.30;;;;;;5045806;28;20040;-45
2022/08/13 10:51:23;;;;;;;0.80;0.80;;;27.80;58.00;;;;;;5046700;28;20078;-44
2022/08/13 10:53:55;;;;;;;0.70;0.70;;;28.00;57.80;;;;;;5046161;28;20036;-43
2022/08/13 10:56:22;;;;;;;0.70;0.70;;;28.10;57.50;;;;;;5046287;28;20032;-43
2022/08/13 10:58:48;;;;;;;1.10;0.68;;;28.10;57.50;;;;;;5046704;28;20374;-43
2022/08/13 11:01:14;;;;;;;0.73;0.70;;;28.20;57.20;;;;;;5046345;28;20021;-43
2022/08/13 11:03:42;;;;;;;0.75;0.75;;;28.20;57.20;;;;;;5045451;28;20048;-43
2022/08/13 11:06:08;;;;;;;1.85;0.68;;;28.20;57.80;;;;;;5046617;28;20100;-43
2022/08/13 11:08:37;;;;;;;0.60;0.60;;;28.30;57.20;;;;;;5046818;28;20618;-43
2022/08/13 11:11:09;;;;;;;0.75;0.60;;;28.20;57.10;;;;;;5045358;28;21016;-43
2022/08/13 11:13:39;;;;;;;1.00;0.65;;;28.20;57.00;;;;;;5046232;28;20132;-43
2022/08/13 11:16:35;;;;;;;1.13;0.73;;;28.20;57.00;;;;;;5046772;28;20017;-43
2022/08/13 11:18:53;;;;;;;0.55;0.55;;;28.20;56.90;;;;;;5038046;28;20068;-43
2022/08/13 11:21:19;;;;;;;0.50;0.50;;;28.20;56.80;;;;;;5046259;28;20025;-43
2022/08/13 11:23:44;;;;;;;0.55;0.55;;;28.20;56.80;;;;;;5045421;28;20540;-44
2022/08/13 11:26:10;;;;;;;0.68;0.68;;;28.30;56.30;;;;;;5046511;28;20024;-44
2022/08/13 11:28:36;;;;;;;1.00;0.70;;;28.40;56.20;;;;;;5046685;28;20040;-44
2022/08/13 11:31:01;;;;;;;1.60;0.70;;;28.50;56.00;;;;;;5045668;28;20100;-44
2022/08/13 11:33:27;;;;;;;0.68;0.60;;;28.50;55.80;;;;;;5045124;28;20017;-44
2022/08/13 11:35:52;;;;;;;1.08;0.80;;;28.70;55.50;;;;;;5046013;28;20028;-43
2022/08/13 11:38:21;;;;;;;0.75;0.68;;;28.80;55.10;;;;;;5044925;28;20555;-42
2022/08/13 11:40:52;;;;;;;0.60;0.60;;;28.90;55.10;;;;;;5045337;28;20025;-43
2022/08/13 11:43:17;;;;;;;0.65;0.65;;;28.90;55.00;;;;;;5045648;28;20481;-43
2022/08/13 11:45:43;;;;;;;0.60;0.60;;;28.90;54.70;;;;;;5042958;28;20370;-43
2022/08/13 11:48:09;;;;;;;1.40;0.60;;;28.90;54.30;;;;;;5043756;28;20041;-43
2022/08/13 11:50:34;;;;;;;1.17;0.80;;;29.00;54.50;;;;;;5043167;28;20033;-43
2022/08/13 11:53:01;;;;;;;1.00;0.70;;;29.00;54.10;;;;;;5041804;28;20029;-43
2022/08/13 11:55:27;;;;;;;0.85;0.80;;;29.10;54.30;;;;;;5043119;28;20250;-43
2022/08/13 11:58:03;;;;;;;0.65;0.65;;;29.20;54.20;;;;;;5043874;28;20021;-43
2022/08/13 12:00:28;;;;;;;1.75;0.60;;;29.20;54.10;;;;;;5043746;28;20044;-44
2022/08/13 12:02:54;;;;;;;0.85;0.70;;;29.20;54.20;;;;;;5043054;28;20041;-43
2022/08/13 12:05:20;;;;;;;1.38;0.70;;;29.20;54.30;;;;;;5044157;28;20025;-43
2022/08/13 12:07:45;;;;;;;0.60;0.60;;;29.20;54.10;;;;;;5042597;28;20071;-43
2022/08/13 12:10:12;;;;;;;0.93;0.73;;;29.20;54.10;;;;;;5043971;28;20083;-43
2022/08/13 12:12:38;;;;;;;0.70;0.70;;;29.20;53.80;;;;;;5042119;28;20025;-42
2022/08/13 12:15:04;;;;;;;0.80;0.80;;;29.30;54.00;;;;;;5039894;28;20033;-43
2022/08/13 12:17:30;;;;;;;2.83;0.73;;;29.40;53.80;;;;;;5043357;28;20031;-43
2022/08/13 12:19:56;;;;;;;1.27;0.70;;;29.40;53.80;;;;;;5042460;28;20512;-43
2022/08/13 12:22:21;;;;;;;0.60;0.60;;;29.40;53.80;;;;;;5044405;28;20025;-42
2022/08/13 12:24:47;;;;;;;0.50;0.50;;;29.50;53.90;;;;;;5042297;28;20029;-44
2022/08/13 12:27:13;;;;;;;0.60;0.60;;;29.50;53.70;;;;;;5043389;28;20423;-44
2022/08/13 12:29:38;;;;;;;1.50;0.40;;;29.40;53.60;;;;;;5043134;28;20045;-44
2022/08/13 12:32:04;;;;;;;1.65;0.60;;;29.40;53.80;;;;;;5043135;28;20348;-44
2022/08/13 12:34:29;;;;;;;0.60;0.60;;;29.40;53.90;;;;;;5042530;28;20048;-44
2022/08/13 12:36:55;;;;;;;1.42;0.60;;;29.40;53.80;;;;;;5045534;28;20029;-44
2022/08/13 12:39:20;;;;;;;1.13;0.60;;;29.40;53.90;;;;;;5044847;28;20032;-43
2022/08/13 12:41:46;;;;;;;0.55;0.55;;;29.40;54.00;;;;;;5043670;28;20017;-43
2022/08/13 12:44:12;;;;;;;1.20;0.60;;;29.40;54.10;;;;;;5045196;28;20029;-42
2022/08/13 12:46:38;;;;;;;2.25;0.60;;;29.40;53.90;;;;;;5044759;28;20021;-43
2022/08/13 12:49:05;;;;;;;0.63;0.63;;;29.50;53.90;;;;;;5043929;28;20119;-43
2022/08/13 12:51:31;;;;;;;0.68;0.60;;;29.60;53.60;;;;;;5044479;28;20480;-43
2022/08/13 12:53:57;;;;;;;1.95;0.63;;;29.70;53.30;;;;;;5044500;28;20029;-44
2022/08/13 12:56:25;;;;;;;2.40;0.50;;;29.80;53.10;;;;;;5044684;28;20020;-43
2022/08/13 12:58:51;;;;;;;1.17;0.80;;;29.80;53.00;;;;;;5045289;28;20381;-43
2022/08/13 13:01:16;;;;;;;1.60;0.70;;;29.90;53.10;;;;;;5044235;28;20112;-44
2022/08/13 13:03:42;;;;;;;1.08;0.55;;;29.80;53.00;;;;;;5043926;28;20052;-44
2022/08/13 13:06:07;;;;;;;1.08;0.50;;;29.80;53.10;;;;;;5044804;28;20108;-44
2022/08/13 13:08:33;;;;;;;1.60;0.50;;;29.80;53.20;;;;;;5044443;28;20091;-44
2022/08/13 13:11:02;;;;;;;2.75;0.73;;;29.80;53.10;;;;;;5043609;28;20072;-44